Terminal Aerodrome Forecast
Issued by NWS

Home | Current Version | Previous Version | Text Only | Print | Product List | Glossary On
Versions: 1 2 3 4 5 6 7 8 9 10 11 12 13 14 15 16 17 18 19
000
FTAK31 PAJN 311720
TAFAKT
TAF
PAKT 311720Z 3118/0118 13008KT 6SM -SHRA VCTS FEW020 BKN050
      OVC080CB
     FM010600 VRB05KT P6SM VCSH BKN050 OVC070
     FM011500 32008KT P6SM VCSH BKN050 OVC100=

USA.gov is the U.S. government's official web portal to all federal, state and local government web resources and services.